sensor_id;sensor_type;location;lat;lon;timestamp;pressure;altitude;pressure_sealevel;temperature;humidity
63287;BME280;49410;55.708;37.522;2022-12-18T00:02:00;98931.59;;;-4.66;77.86
63287;BME280;49410;55.708;37.522;2022-12-18T00:04:27;98904.00;;;-4.81;77.65
63287;BME280;49410;55.708;37.522;2022-12-18T00:06:52;98894.50;;;-4.85;77.76
63287;BME280;49410;55.708;37.522;2022-12-18T00:09:18;98908.34;;;-4.64;78.02
63287;BME280;49410;55.708;37.522;2022-12-18T00:11:44;98889.06;;;-4.84;77.84
63287;BME280;49410;55.708;37.522;2022-12-18T00:14:10;98898.97;;;-4.86;78.16
63287;BME280;49410;55.708;37.522;2022-12-18T00:16:36;98881.06;;;-4.84;78.57
63287;BME280;49410;55.708;37.522;2022-12-18T00:19:02;98902.56;;;-4.87;80.09
63287;BME280;49410;55.708;37.522;2022-12-18T00:21:28;98879.59;;;-5.04;80.12
63287;BME280;49410;55.708;37.522;2022-12-18T00:23:54;98871.38;;;-5.01;79.75
63287;BME280;49410;55.708;37.522;2022-12-18T00:26:23;98876.00;;;-4.88;79.53
63287;BME280;49410;55.708;37.522;2022-12-18T00:28:49;98860.75;;;-4.86;78.97
63287;BME280;49410;55.708;37.522;2022-12-18T00:31:18;98873.22;;;-4.87;78.52
63287;BME280;49410;55.708;37.522;2022-12-18T00:33:44;98877.88;;;-4.90;78.49
63287;BME280;49410;55.708;37.522;2022-12-18T00:36:21;98878.72;;;-4.74;78.88
63287;BME280;49410;55.708;37.522;2022-12-18T00:38:47;98852.75;;;-4.86;78.49
63287;BME280;49410;55.708;37.522;2022-12-18T00:41:14;98859.44;;;-4.79;77.52
63287;BME280;49410;55.708;37.522;2022-12-18T00:44:01;98852.31;;;-4.78;77.87
63287;BME280;49410;55.708;37.522;2022-12-18T00:46:27;98862.97;;;-4.78;77.83
63287;BME280;49410;55.708;37.522;2022-12-18T00:48:52;98839.03;;;-4.80;77.95
63287;BME280;49410;55.708;37.522;2022-12-18T00:51:18;98848.16;;;-4.99;77.27
63287;BME280;49410;55.708;37.522;2022-12-18T00:53:43;98836.16;;;-4.91;77.95
63287;BME280;49410;55.708;37.522;2022-12-18T00:56:09;98824.38;;;-4.87;77.71
63287;BME280;49410;55.708;37.522;2022-12-18T00:58:37;98816.75;;;-4.79;77.31
63287;BME280;49410;55.708;37.522;2022-12-18T01:01:06;98822.38;;;-4.69;77.67
63287;BME280;49410;55.708;37.522;2022-12-18T01:03:32;98829.63;;;-4.71;76.96
63287;BME280;49410;55.708;37.522;2022-12-18T01:05:58;98822.19;;;-4.80;77.05
63287;BME280;49410;55.708;37.522;2022-12-18T01:08:23;98788.91;;;-4.89;77.23
63287;BME280;49410;55.708;37.522;2022-12-18T01:10:49;98824.75;;;-4.79;76.99
63287;BME280;49410;55.708;37.522;2022-12-18T01:13:15;98805.59;;;-4.86;77.70
63287;BME280;49410;55.708;37.522;2022-12-18T01:15:40;98791.69;;;-4.76;77.74
63287;BME280;49410;55.708;37.522;2022-12-18T01:18:06;98802.94;;;-4.71;76.74
63287;BME280;49410;55.708;37.522;2022-12-18T01:20:32;98785.00;;;-4.98;77.49
63287;BME280;49410;55.708;37.522;2022-12-18T01:22:57;98797.88;;;-4.90;77.84
63287;BME280;49410;55.708;37.522;2022-12-18T01:25:23;98789.03;;;-4.91;77.85
63287;BME280;49410;55.708;37.522;2022-12-18T01:27:49;98814.66;;;-4.74;77.61
63287;BME280;49410;55.708;37.522;2022-12-18T01:30:14;98790.47;;;-4.85;77.39
63287;BME280;49410;55.708;37.522;2022-12-18T01:32:40;98798.47;;;-4.85;77.01
63287;BME280;49410;55.708;37.522;2022-12-18T01:35:06;98820.06;;;-4.75;77.13
63287;BME280;49410;55.708;37.522;2022-12-18T01:37:31;98798.19;;;-4.80;76.74
63287;BME280;49410;55.708;37.522;2022-12-18T01:39:56;98809.50;;;-4.77;76.51
63287;BME280;49410;55.708;37.522;2022-12-18T01:42:22;98798.72;;;-4.75;76.23
63287;BME280;49410;55.708;37.522;2022-12-18T01:47:45;98801.63;;;-4.78;76.49
63287;BME280;49410;55.708;37.522;2022-12-18T01:50:19;98793.97;;;-4.85;77.21
63287;BME280;49410;55.708;37.522;2022-12-18T01:52:52;98818.25;;;-4.89;76.59
63287;BME280;49410;55.708;37.522;2022-12-18T01:55:20;98791.09;;;-4.96;76.81
63287;BME280;49410;55.708;37.522;2022-12-18T01:57:48;98798.81;;;-5.06;77.58
63287;BME280;49410;55.708;37.522;2022-12-18T02:00:17;98788.16;;;-5.06;77.13
63287;BME280;49410;55.708;37.522;2022-12-18T02:02:45;98799.97;;;-4.95;77.91
63287;BME280;49410;55.708;37.522;2022-12-18T02:05:13;98792.47;;;-4.89;77.26
63287;BME280;49410;55.708;37.522;2022-12-18T02:07:56;98792.72;;;-4.93;76.64
63287;BME280;49410;55.708;37.522;2022-12-18T02:15:58;98805.03;;;-4.91;76.71
63287;BME280;49410;55.708;37.522;2022-12-18T02:18:54;98813.97;;;-4.92;75.76
63287;BME280;49410;55.708;37.522;2022-12-18T02:21:36;98806.75;;;-4.90;76.23
63287;BME280;49410;55.708;37.522;2022-12-18T02:24:35;98813.00;;;-5.05;76.40
63287;BME280;49410;55.708;37.522;2022-12-18T02:27:06;98816.81;;;-5.09;76.72
63287;BME280;49410;55.708;37.522;2022-12-18T02:29:52;98799.31;;;-4.99;76.47
63287;BME280;49410;55.708;37.522;2022-12-18T02:32:39;98794.59;;;-5.10;75.88
63287;BME280;49410;55.708;37.522;2022-12-18T02:35:09;98790.97;;;-5.23;76.95
63287;BME280;49410;55.708;37.522;2022-12-18T02:37:39;98760.84;;;-5.40;75.90
63287;BME280;49410;55.708;37.522;2022-12-18T02:40:08;98785.63;;;-5.23;76.11
63287;BME280;49410;55.708;37.522;2022-12-18T02:42:34;98798.44;;;-5.14;75.67
63287;BME280;49410;55.708;37.522;2022-12-18T02:45:00;98799.16;;;-5.12;75.93
63287;BME280;49410;55.708;37.522;2022-12-18T02:47:30;98795.28;;;-5.21;75.73
63287;BME280;49410;55.708;37.522;2022-12-18T02:56:50;98804.56;;;-5.28;76.01
63287;BME280;49410;55.708;37.522;2022-12-18T02:59:23;98811.72;;;-5.28;76.23
63287;BME280;49410;55.708;37.522;2022-12-18T03:06:58;98781.31;;;-5.40;75.59
63287;BME280;49410;55.708;37.522;2022-12-18T03:09:35;98791.34;;;-5.30;76.44
63287;BME280;49410;55.708;37.522;2022-12-18T03:12:10;98786.78;;;-5.27;75.84
63287;BME280;49410;55.708;37.522;2022-12-18T03:14:55;98799.72;;;-5.36;75.90
63287;BME280;49410;55.708;37.522;2022-12-18T03:17:26;98780.63;;;-5.44;76.02
63287;BME280;49410;55.708;37.522;2022-12-18T03:19:54;98788.28;;;-5.38;76.25
63287;BME280;49410;55.708;37.522;2022-12-18T03:22:23;98773.44;;;-5.27;76.16
63287;BME280;49410;55.708;37.522;2022-12-18T03:24:50;98793.56;;;-5.22;75.36
63287;BME280;49410;55.708;37.522;2022-12-18T03:27:18;98816.78;;;-5.24;75.71
63287;BME280;49410;55.708;37.522;2022-12-18T03:29:49;98813.53;;;-5.29;75.70
63287;BME280;49410;55.708;37.522;2022-12-18T03:32:26;98810.38;;;-5.36;75.92
63287;BME280;49410;55.708;37.522;2022-12-18T03:34:58;98807.03;;;-5.39;75.97
63287;BME280;49410;55.708;37.522;2022-12-18T03:37:25;98806.28;;;-5.27;75.68
63287;BME280;49410;55.708;37.522;2022-12-18T03:39:50;98801.47;;;-5.51;76.06
63287;BME280;49410;55.708;37.522;2022-12-18T03:42:29;98785.00;;;-5.43;76.20
63287;BME280;49410;55.708;37.522;2022-12-18T03:45:08;98784.63;;;-5.51;76.25
63287;BME280;49410;55.708;37.522;2022-12-18T03:50:22;98788.84;;;-5.33;75.76
63287;BME280;49410;55.708;37.522;2022-12-18T03:53:22;98795.72;;;-5.28;74.81
63287;BME280;49410;55.708;37.522;2022-12-18T03:55:51;98778.66;;;-5.40;75.17
63287;BME280;49410;55.708;37.522;2022-12-18T03:58:20;98808.00;;;-5.26;75.42
63287;BME280;49410;55.708;37.522;2022-12-18T04:00:49;98800.50;;;-5.19;75.22
63287;BME280;49410;55.708;37.522;2022-12-18T04:03:18;98804.28;;;-5.38;74.39
63287;BME280;49410;55.708;37.522;2022-12-18T04:05:47;98797.13;;;-5.37;75.10
63287;BME280;49410;55.708;37.522;2022-12-18T04:08:15;98797.00;;;-5.50;74.89
63287;BME280;49410;55.708;37.522;2022-12-18T04:10:41;98802.94;;;-5.45;75.33
63287;BME280;49410;55.708;37.522;2022-12-18T04:13:06;98804.59;;;-5.58;74.89
63287;BME280;49410;55.708;37.522;2022-12-18T04:15:34;98827.09;;;-5.34;74.89
63287;BME280;49410;55.708;37.522;2022-12-18T04:18:00;98839.53;;;-5.18;73.76
63287;BME280;49410;55.708;37.522;2022-12-18T04:20:26;98854.41;;;-5.44;74.21
63287;BME280;49410;55.708;37.522;2022-12-18T04:23:10;98852.91;;;-5.34;75.21
63287;BME280;49410;55.708;37.522;2022-12-18T04:25:36;98850.25;;;-5.34;74.40
63287;BME280;49410;55.708;37.522;2022-12-18T04:28:02;98841.94;;;-5.44;75.18
63287;BME280;49410;55.708;37.522;2022-12-18T04:30:27;98829.38;;;-5.42;75.51
63287;BME280;49410;55.708;37.522;2022-12-18T04:32:53;98867.06;;;-5.48;75.63
63287;BME280;49410;55.708;37.522;2022-12-18T04:35:18;98882.09;;;-5.47;75.92
63287;BME280;49410;55.708;37.522;2022-12-18T04:37:44;98879.78;;;-5.53;75.89
63287;BME280;49410;55.708;37.522;2022-12-18T04:40:10;98876.09;;;-5.51;77.01
63287;BME280;49410;55.708;37.522;2022-12-18T04:42:35;98876.78;;;-5.47;76.45
63287;BME280;49410;55.708;37.522;2022-12-18T04:45:01;98868.09;;;-5.51;76.99
63287;BME280;49410;55.708;37.522;2022-12-18T04:47:26;98889.59;;;-5.54;75.86
63287;BME280;49410;55.708;37.522;2022-12-18T04:49:52;98907.97;;;-5.65;77.52
63287;BME280;49410;55.708;37.522;2022-12-18T04:52:17;98885.03;;;-5.68;78.49
63287;BME280;49410;55.708;37.522;2022-12-18T04:54:43;98877.72;;;-5.64;78.03
63287;BME280;49410;55.708;37.522;2022-12-18T04:57:08;98901.81;;;-5.66;78.03
63287;BME280;49410;55.708;37.522;2022-12-18T04:59:34;98887.28;;;-5.76;78.66
63287;BME280;49410;55.708;37.522;2022-12-18T05:01:59;98886.25;;;-5.57;77.28
63287;BME280;49410;55.708;37.522;2022-12-18T05:04:25;98873.72;;;-5.71;76.60
63287;BME280;49410;55.708;37.522;2022-12-18T05:06:50;98884.69;;;-5.78;76.73
63287;BME280;49410;55.708;37.522;2022-12-18T05:09:16;98872.41;;;-5.80;77.64
63287;BME280;49410;55.708;37.522;2022-12-18T05:11:41;98905.31;;;-5.65;76.25
63287;BME280;49410;55.708;37.522;2022-12-18T05:14:07;98895.78;;;-5.69;76.81
63287;BME280;49410;55.708;37.522;2022-12-18T05:16:32;98892.16;;;-5.68;76.59
63287;BME280;49410;55.708;37.522;2022-12-18T05:18:58;98888.66;;;-5.69;76.87
63287;BME280;49410;55.708;37.522;2022-12-18T05:21:23;98905.31;;;-5.97;75.96
63287;BME280;49410;55.708;37.522;2022-12-18T05:23:48;98906.63;;;-5.88;77.25
63287;BME280;49410;55.708;37.522;2022-12-18T05:26:16;98915.97;;;-5.97;76.63
63287;BME280;49410;55.708;37.522;2022-12-18T05:28:42;98909.19;;;-5.87;77.10
63287;BME280;49410;55.708;37.522;2022-12-18T05:31:07;98922.16;;;-5.97;76.23
63287;BME280;49410;55.708;37.522;2022-12-18T05:33:34;98923.63;;;-5.91;76.30
63287;BME280;49410;55.708;37.522;2022-12-18T05:36:05;98935.56;;;-5.82;77.01
63287;BME280;49410;55.708;37.522;2022-12-18T05:38:33;98946.31;;;-5.68;76.24
63287;BME280;49410;55.708;37.522;2022-12-18T05:40:58;98912.22;;;-6.09;76.43
63287;BME280;49410;55.708;37.522;2022-12-18T05:43:25;98933.56;;;-5.95;76.61
63287;BME280;49410;55.708;37.522;2022-12-18T05:45:51;98947.75;;;-5.94;76.20
63287;BME280;49410;55.708;37.522;2022-12-18T05:48:18;98970.13;;;-5.81;76.71
63287;BME280;49410;55.708;37.522;2022-12-18T05:50:46;98966.25;;;-5.75;75.55
63287;BME280;49410;55.708;37.522;2022-12-18T05:53:13;98947.59;;;-5.91;76.71
63287;BME280;49410;55.708;37.522;2022-12-18T05:55:41;98980.06;;;-5.84;75.36
63287;BME280;49410;55.708;37.522;2022-12-18T05:58:08;98959.78;;;-5.87;75.56
63287;BME280;49410;55.708;37.522;2022-12-18T06:00:36;98981.91;;;-5.69;75.11
63287;BME280;49410;55.708;37.522;2022-12-18T06:03:05;98977.59;;;-5.71;75.71
63287;BME280;49410;55.708;37.522;2022-12-18T06:05:34;98974.47;;;-5.80;75.73
63287;BME280;49410;55.708;37.522;2022-12-18T06:08:00;98976.31;;;-5.80;74.95
63287;BME280;49410;55.708;37.522;2022-12-18T06:10:26;98962.69;;;-5.92;75.04
63287;BME280;49410;55.708;37.522;2022-12-18T06:12:51;98974.75;;;-6.00;75.57
63287;BME280;49410;55.708;37.522;2022-12-18T06:15:17;99004.63;;;-6.11;75.58
63287;BME280;49410;55.708;37.522;2022-12-18T06:17:42;98982.97;;;-5.89;75.51
63287;BME280;49410;55.708;37.522;2022-12-18T06:20:08;98988.25;;;-5.87;75.90
63287;BME280;49410;55.708;37.522;2022-12-18T06:22:34;99005.34;;;-5.75;75.00
63287;BME280;49410;55.708;37.522;2022-12-18T06:25:00;99011.03;;;-5.82;74.96
63287;BME280;49410;55.708;37.522;2022-12-18T06:27:25;98993.56;;;-5.87;75.15
63287;BME280;49410;55.708;37.522;2022-12-18T06:29:51;99013.19;;;-5.72;74.41
63287;BME280;49410;55.708;37.522;2022-12-18T06:32:16;99015.38;;;-5.97;73.50
63287;BME280;49410;55.708;37.522;2022-12-18T06:34:42;99018.53;;;-5.90;74.54
63287;BME280;49410;55.708;37.522;2022-12-18T06:37:07;99026.88;;;-5.96;74.25
63287;BME280;49410;55.708;37.522;2022-12-18T06:39:33;98989.53;;;-6.11;73.76
63287;BME280;49410;55.708;37.522;2022-12-18T06:41:58;99029.53;;;-5.96;74.09
63287;BME280;49410;55.708;37.522;2022-12-18T06:44:24;99039.78;;;-5.88;74.38
63287;BME280;49410;55.708;37.522;2022-12-18T06:46:49;99059.06;;;-5.67;74.16
63287;BME280;49410;55.708;37.522;2022-12-18T06:49:15;99065.44;;;-5.70;73.95
63287;BME280;49410;55.708;37.522;2022-12-18T06:51:41;99065.03;;;-5.96;73.41
63287;BME280;49410;55.708;37.522;2022-12-18T06:54:06;99066.22;;;-5.68;73.17
63287;BME280;49410;55.708;37.522;2022-12-18T06:56:32;99080.63;;;-5.72;73.43
63287;BME280;49410;55.708;37.522;2022-12-18T06:58:57;99089.00;;;-5.62;72.72
63287;BME280;49410;55.708;37.522;2022-12-18T07:01:23;99095.19;;;-5.62;71.91
63287;BME280;49410;55.708;37.522;2022-12-18T07:03:56;99091.47;;;-5.59;72.28
63287;BME280;49410;55.708;37.522;2022-12-18T07:06:24;99102.53;;;-5.83;71.55
63287;BME280;49410;55.708;37.522;2022-12-18T07:08:50;99089.25;;;-5.67;72.02
63287;BME280;49410;55.708;37.522;2022-12-18T07:11:16;99081.72;;;-5.92;71.92
63287;BME280;49410;55.708;37.522;2022-12-18T07:13:42;99096.63;;;-5.72;71.92
63287;BME280;49410;55.708;37.522;2022-12-18T07:16:12;99071.91;;;-5.92;72.18
63287;BME280;49410;55.708;37.522;2022-12-18T07:18:38;99094.97;;;-5.74;71.88
63287;BME280;49410;55.708;37.522;2022-12-18T07:21:11;99099.28;;;-5.72;71.71
63287;BME280;49410;55.708;37.522;2022-12-18T07:23:37;99104.81;;;-5.59;70.88
63287;BME280;49410;55.708;37.522;2022-12-18T07:26:11;99131.94;;;-5.51;70.45
63287;BME280;49410;55.708;37.522;2022-12-18T07:28:38;99119.13;;;-5.44;70.88
63287;BME280;49410;55.708;37.522;2022-12-18T07:31:08;99138.56;;;-5.42;70.44
63287;BME280;49410;55.708;37.522;2022-12-18T07:33:34;99129.72;;;-5.42;70.28
63287;BME280;49410;55.708;37.522;2022-12-18T07:36:00;99146.41;;;-5.39;69.98
63287;BME280;49410;55.708;37.522;2022-12-18T07:38:26;99138.09;;;-5.50;69.76
63287;BME280;49410;55.708;37.522;2022-12-18T07:40:51;99123.75;;;-5.48;69.88
63287;BME280;49410;55.708;37.522;2022-12-18T07:43:17;99130.56;;;-5.42;70.44
63287;BME280;49410;55.708;37.522;2022-12-18T07:45:42;99135.53;;;-5.52;70.28
63287;BME280;49410;55.708;37.522;2022-12-18T07:48:08;99134.91;;;-5.57;70.13
63287;BME280;49410;55.708;37.522;2022-12-18T07:50:34;99143.94;;;-5.59;69.70
63287;BME280;49410;55.708;37.522;2022-12-18T07:52:59;99131.88;;;-5.67;70.50
63287;BME280;49410;55.708;37.522;2022-12-18T07:55:29;99143.69;;;-5.55;70.31
63287;BME280;49410;55.708;37.522;2022-12-18T07:57:55;99146.09;;;-5.50;70.20
63287;BME280;49410;55.708;37.522;2022-12-18T08:00:20;99141.59;;;-5.66;69.63
63287;BME280;49410;55.708;37.522;2022-12-18T08:02:46;99143.72;;;-5.39;70.36
63287;BME280;49410;55.708;37.522;2022-12-18T08:05:11;99151.88;;;-5.42;69.29
63287;BME280;49410;55.708;37.522;2022-12-18T08:07:37;99149.66;;;-5.34;69.80
63287;BME280;49410;55.708;37.522;2022-12-18T08:10:03;99162.22;;;-5.36;69.66
63287;BME280;49410;55.708;37.522;2022-12-18T08:12:28;99166.72;;;-5.20;69.55
63287;BME280;49410;55.708;37.522;2022-12-18T08:14:54;99183.13;;;-5.28;69.70
63287;BME280;49410;55.708;37.522;2022-12-18T08:17:20;99192.00;;;-5.27;69.44
63287;BME280;49410;55.708;37.522;2022-12-18T08:19:45;99186.81;;;-5.31;69.64
63287;BME280;49410;55.708;37.522;2022-12-18T08:22:10;99206.97;;;-5.25;70.04
63287;BME280;49410;55.708;37.522;2022-12-18T08:24:36;99186.53;;;-5.42;70.19
63287;BME280;49410;55.708;37.522;2022-12-18T08:27:02;99209.72;;;-5.26;69.86
63287;BME280;49410;55.708;37.522;2022-12-18T08:29:27;99203.16;;;-5.37;70.08
63287;BME280;49410;55.708;37.522;2022-12-18T08:31:53;99211.72;;;-5.48;71.01
63287;BME280;49410;55.708;37.522;2022-12-18T08:34:18;99221.09;;;-5.23;71.28
63287;BME280;49410;55.708;37.522;2022-12-18T08:36:44;99228.44;;;-5.28;71.01
63287;BME280;49410;55.708;37.522;2022-12-18T08:39:09;99197.97;;;-5.40;70.39
63287;BME280;49410;55.708;37.522;2022-12-18T08:41:35;99226.88;;;-5.15;71.35
63287;BME280;49410;55.708;37.522;2022-12-18T08:44:00;99220.75;;;-5.17;70.51
63287;BME280;49410;55.708;37.522;2022-12-18T08:46:44;99231.84;;;-5.24;71.07
63287;BME280;49410;55.708;37.522;2022-12-18T08:49:11;99222.66;;;-5.36;71.30
63287;BME280;49410;55.708;37.522;2022-12-18T08:51:37;99227.75;;;-5.14;71.73
63287;BME280;49410;55.708;37.522;2022-12-18T08:54:03;99219.97;;;-5.19;71.42
63287;BME280;49410;55.708;37.522;2022-12-18T08:56:29;99219.41;;;-5.08;70.71
63287;BME280;49410;55.708;37.522;2022-12-18T08:58:55;99238.41;;;-5.14;70.72
63287;BME280;49410;55.708;37.522;2022-12-18T09:01:22;99233.28;;;-5.19;72.08
63287;BME280;49410;55.708;37.522;2022-12-18T09:03:51;99223.41;;;-5.17;71.33
63287;BME280;49410;55.708;37.522;2022-12-18T09:06:18;99222.41;;;-5.14;71.33
63287;BME280;49410;55.708;37.522;2022-12-18T09:08:44;99233.56;;;-5.41;73.77
63287;BME280;49410;55.708;37.522;2022-12-18T09:11:20;99247.66;;;-5.21;72.04
63287;BME280;49410;55.708;37.522;2022-12-18T09:13:46;99210.28;;;-5.37;72.32
63287;BME280;49410;55.708;37.522;2022-12-18T09:16:12;99242.31;;;-5.04;72.48
63287;BME280;49410;55.708;37.522;2022-12-18T09:18:37;99246.81;;;-5.22;72.93
63287;BME280;49410;55.708;37.522;2022-12-18T09:21:11;99258.91;;;-4.99;72.85
63287;BME280;49410;55.708;37.522;2022-12-18T09:23:37;99277.63;;;-4.82;72.15
63287;BME280;49410;55.708;37.522;2022-12-18T09:26:02;99272.59;;;-5.05;71.94
63287;BME280;49410;55.708;37.522;2022-12-18T09:28:28;99279.06;;;-4.93;71.65
63287;BME280;49410;55.708;37.522;2022-12-18T09:30:53;99283.03;;;-5.00;71.01
63287;BME280;49410;55.708;37.522;2022-12-18T09:33:19;99276.91;;;-5.02;71.43
63287;BME280;49410;55.708;37.522;2022-12-18T09:35:45;99276.25;;;-5.07;71.30
63287;BME280;49410;55.708;37.522;2022-12-18T09:38:13;99301.41;;;-4.78;71.88
63287;BME280;49410;55.708;37.522;2022-12-18T09:40:45;99299.53;;;-4.76;71.64
63287;BME280;49410;55.708;37.522;2022-12-18T09:45:49;99313.72;;;-4.75;71.03
63287;BME280;49410;55.708;37.522;2022-12-18T09:48:23;99297.16;;;-4.82;72.06
63287;BME280;49410;55.708;37.522;2022-12-18T09:50:51;99306.53;;;-4.91;71.21
63287;BME280;49410;55.708;37.522;2022-12-18T09:53:23;99309.41;;;-4.78;72.24
63287;BME280;49410;55.708;37.522;2022-12-18T09:55:51;99314.25;;;-5.02;73.15
63287;BME280;49410;55.708;37.522;2022-12-18T10:00:56;99323.84;;;-4.82;72.81
63287;BME280;49410;55.708;37.522;2022-12-18T10:03:22;99324.03;;;-4.85;73.29
63287;BME280;49410;55.708;37.522;2022-12-18T10:08:49;99330.34;;;-4.88;72.98
63287;BME280;49410;55.708;37.522;2022-12-18T10:11:34;99333.97;;;-4.71;72.93
63287;BME280;49410;55.708;37.522;2022-12-18T10:19:40;99331.97;;;-4.68;71.76
63287;BME280;49410;55.708;37.522;2022-12-18T10:25:19;99318.53;;;-5.00;73.07
63287;BME280;49410;55.708;37.522;2022-12-18T10:27:46;99325.59;;;-4.99;72.85
63287;BME280;49410;55.708;37.522;2022-12-18T10:30:21;99323.47;;;-4.92;73.00
63287;BME280;49410;55.708;37.522;2022-12-18T10:32:47;99330.34;;;-4.88;72.35
63287;BME280;49410;55.708;37.522;2022-12-18T10:35:33;99338.31;;;-4.86;73.26
63287;BME280;49410;55.708;37.522;2022-12-18T10:38:01;99323.03;;;-5.00;72.95
63287;BME280;49410;55.708;37.522;2022-12-18T10:40:27;99340.28;;;-4.90;72.98
63287;BME280;49410;55.708;37.522;2022-12-18T10:43:11;99332.91;;;-5.02;72.79
63287;BME280;49410;55.708;37.522;2022-12-18T10:45:37;99351.56;;;-4.85;74.00
63287;BME280;49410;55.708;37.522;2022-12-18T10:48:03;99344.81;;;-4.92;73.24
63287;BME280;49410;55.708;37.522;2022-12-18T10:50:30;99368.50;;;-4.86;72.97
63287;BME280;49410;55.708;37.522;2022-12-18T10:52:59;99368.66;;;-5.06;73.09
63287;BME280;49410;55.708;37.522;2022-12-18T10:55:37;99380.78;;;-4.99;73.63
63287;BME280;49410;55.708;37.522;2022-12-18T10:58:29;99395.28;;;-4.87;73.42
63287;BME280;49410;55.708;37.522;2022-12-18T11:03:39;99399.56;;;-4.85;73.96
63287;BME280;49410;55.708;37.522;2022-12-18T11:06:09;99412.69;;;-4.97;73.89
63287;BME280;49410;55.708;37.522;2022-12-18T11:08:36;99413.47;;;-5.13;73.56
63287;BME280;49410;55.708;37.522;2022-12-18T11:11:02;99404.03;;;-5.03;74.04
63287;BME280;49410;55.708;37.522;2022-12-18T11:13:30;99387.25;;;-5.22;74.19
63287;BME280;49410;55.708;37.522;2022-12-18T11:15:57;99395.53;;;-5.09;74.21
63287;BME280;49410;55.708;37.522;2022-12-18T11:18:30;99409.22;;;-5.17;74.70
63287;BME280;49410;55.708;37.522;2022-12-18T11:21:07;99408.16;;;-4.95;75.21
63287;BME280;49410;55.708;37.522;2022-12-18T11:23:34;99403.56;;;-4.93;75.07
63287;BME280;49410;55.708;37.522;2022-12-18T11:26:03;99397.00;;;-5.04;74.49
63287;BME280;49410;55.708;37.522;2022-12-18T11:31:28;99411.06;;;-5.00;74.59
63287;BME280;49410;55.708;37.522;2022-12-18T11:34:04;99414.91;;;-5.06;75.19
63287;BME280;49410;55.708;37.522;2022-12-18T11:36:37;99425.84;;;-5.12;75.92
63287;BME280;49410;55.708;37.522;2022-12-18T11:39:20;99428.97;;;-5.21;78.05
63287;BME280;49410;55.708;37.522;2022-12-18T11:47:42;99436.69;;;-5.15;75.79
63287;BME280;49410;55.708;37.522;2022-12-18T11:50:23;99431.72;;;-5.40;76.48
63287;BME280;49410;55.708;37.522;2022-12-18T11:52:50;99437.59;;;-5.34;77.07
63287;BME280;49410;55.708;37.522;2022-12-18T11:55:38;99441.50;;;-5.41;77.03
63287;BME280;49410;55.708;37.522;2022-12-18T11:58:26;99461.66;;;-5.35;76.26
63287;BME280;49410;55.708;37.522;2022-12-18T12:06:22;99486.84;;;-5.23;75.03
63287;BME280;49410;55.708;37.522;2022-12-18T12:11:39;99500.75;;;-5.17;74.01
63287;BME280;49410;55.708;37.522;2022-12-18T12:17:18;99516.38;;;-5.09;74.33
63287;BME280;49410;55.708;37.522;2022-12-18T12:19:55;99510.94;;;-5.25;74.43
63287;BME280;49410;55.708;37.522;2022-12-18T12:31:16;99525.06;;;-5.42;73.72
63287;BME280;49410;55.708;37.522;2022-12-18T12:33:57;99553.81;;;-5.30;74.76
63287;BME280;49410;55.708;37.522;2022-12-18T12:36:54;99548.78;;;-5.36;74.76
63287;BME280;49410;55.708;37.522;2022-12-18T12:39:30;99528.22;;;-5.34;75.12
63287;BME280;49410;55.708;37.522;2022-12-18T12:41:58;99550.56;;;-5.17;75.27
63287;BME280;49410;55.708;37.522;2022-12-18T12:44:55;99548.34;;;-5.26;75.77
63287;BME280;49410;55.708;37.522;2022-12-18T12:47:31;99569.47;;;-5.22;75.94
63287;BME280;49410;55.708;37.522;2022-12-18T12:50:01;99555.19;;;-5.40;76.00
63287;BME280;49410;55.708;37.522;2022-12-18T12:52:32;99581.50;;;-5.32;75.87
63287;BME280;49410;55.708;37.522;2022-12-18T12:54:59;99569.41;;;-5.39;82.82
63287;BME280;49410;55.708;37.522;2022-12-18T12:57:33;99563.06;;;-5.37;76.46
63287;BME280;49410;55.708;37.522;2022-12-18T13:00:14;99602.03;;;-5.34;75.47
63287;BME280;49410;55.708;37.522;2022-12-18T13:03:12;99598.00;;;-5.24;75.30
63287;BME280;49410;55.708;37.522;2022-12-18T13:05:53;99592.13;;;-5.51;75.30
63287;BME280;49410;55.708;37.522;2022-12-18T13:08:30;99586.47;;;-5.24;75.73
63287;BME280;49410;55.708;37.522;2022-12-18T13:11:00;99627.25;;;-5.22;75.85
63287;BME280;49410;55.708;37.522;2022-12-18T13:13:54;99616.16;;;-5.32;75.67
63287;BME280;49410;55.708;37.522;2022-12-18T13:16:24;99603.47;;;-5.27;75.96
63287;BME280;49410;55.708;37.522;2022-12-18T13:18:54;99627.03;;;-5.18;75.24
63287;BME280;49410;55.708;37.522;2022-12-18T13:21:28;99642.03;;;-5.15;74.89
63287;BME280;49410;55.708;37.522;2022-12-18T13:23:55;99635.53;;;-5.28;74.96
63287;BME280;49410;55.708;37.522;2022-12-18T13:28:51;99629.41;;;-5.31;74.40
63287;BME280;49410;55.708;37.522;2022-12-18T13:34:29;99662.44;;;-5.14;74.39
63287;BME280;49410;55.708;37.522;2022-12-18T13:37:35;99648.75;;;-5.25;76.61
63287;BME280;49410;55.708;37.522;2022-12-18T13:39:42;99678.25;;;-5.09;76.51
63287;BME280;49410;55.708;37.522;2022-12-18T13:44:36;99671.59;;;-5.20;76.49
63287;BME280;49410;55.708;37.522;2022-12-18T13:47:04;99675.19;;;-5.21;75.56
63287;BME280;49410;55.708;37.522;2022-12-18T13:49:41;99698.44;;;-5.04;75.38
63287;BME280;49410;55.708;37.522;2022-12-18T13:52:21;99701.72;;;-4.99;74.49
63287;BME280;49410;55.708;37.522;2022-12-18T13:54:51;99712.31;;;-4.97;74.50
63287;BME280;49410;55.708;37.522;2022-12-18T13:57:29;99691.34;;;-5.05;74.77
63287;BME280;49410;55.708;37.522;2022-12-18T13:59:56;99709.72;;;-4.99;75.15
63287;BME280;49410;55.708;37.522;2022-12-18T14:02:27;99711.56;;;-4.99;74.97
63287;BME280;49410;55.708;37.522;2022-12-18T14:04:53;99698.47;;;-5.05;76.33
63287;BME280;49410;55.708;37.522;2022-12-18T14:09:50;99717.25;;;-5.27;76.09
63287;BME280;49410;55.708;37.522;2022-12-18T14:12:22;99734.91;;;-5.25;75.81
63287;BME280;49410;55.708;37.522;2022-12-18T14:15:41;99740.56;;;-5.12;76.50
63287;BME280;49410;55.708;37.522;2022-12-18T14:20:49;99760.56;;;-5.22;77.18
63287;BME280;49410;55.708;37.522;2022-12-18T14:23:31;99766.94;;;-5.46;74.78
63287;BME280;49410;55.708;37.522;2022-12-18T14:25:57;99753.47;;;-5.42;74.18
63287;BME280;49410;55.708;37.522;2022-12-18T14:28:23;99776.75;;;-5.46;73.50